createdAt,value
2022-09-05T00:02:03.405Z,98875.88
2022-09-05T00:05:16.928Z,98878.44
2022-09-05T00:08:53.771Z,98882.00
2022-09-05T00:11:58.210Z,98880.16
2022-09-05T00:15:19.125Z,98868.69
2022-09-05T00:23:19.917Z,98869.53
2022-09-05T00:24:29.593Z,98867.81
2022-09-05T00:26:20.150Z,98853.81
2022-09-05T00:29:28.902Z,98857.38
2022-09-05T00:33:16.967Z,98847.66
2022-09-05T00:36:43.087Z,98854.69
2022-09-05T00:39:48.580Z,98849.56
2022-09-05T00:43:11.805Z,98847.00
2022-09-05T00:46:28.586Z,98856.66
2022-09-05T00:49:39.054Z,98858.47
2022-09-05T00:53:06.311Z,98855.09
2022-09-05T00:56:30.585Z,98855.13
2022-09-05T01:00:03.745Z,98851.59
2022-09-05T01:03:28.055Z,98853.34
2022-09-05T01:06:37.626Z,98846.44
2022-09-05T01:09:43.773Z,98845.50
2022-09-05T01:12:55.418Z,98843.88
2022-09-05T01:16:21.273Z,98850.00
2022-09-05T01:19:31.124Z,98843.78
2022-09-05T01:22:39.166Z,98849.09
2022-09-05T01:26:05.462Z,98847.41
2022-09-05T01:29:21.676Z,98847.47
2022-09-05T01:32:53.085Z,98844.00
2022-09-05T01:36:40.127Z,98843.06
2022-09-05T01:40:11.721Z,98843.94
2022-09-05T01:43:35.139Z,98844.78
2022-09-05T01:46:38.777Z,98841.41
2022-09-05T01:49:56.462Z,98837.88
2022-09-05T01:53:09.116Z,98836.09
2022-09-05T01:56:27.699Z,98844.78
2022-09-05T01:59:45.875Z,98841.31
2022-09-05T02:03:01.751Z,98842.22
2022-09-05T02:06:34.833Z,98840.44
2022-09-05T02:10:07.774Z,98845.75
2022-09-05T02:13:19.043Z,98841.34
2022-09-05T02:16:40.544Z,98840.47
2022-09-05T02:19:49.864Z,98846.56
2022-09-05T02:23:41.089Z,98837.88
2022-09-05T02:26:51.437Z,98843.94
2022-09-05T02:30:25.286Z,98837.81
2022-09-05T02:33:32.979Z,98836.91
2022-09-05T02:36:43.632Z,98837.75
2022-09-05T02:45:01.853Z,98834.22
2022-09-05T02:45:11.901Z,98829.78
2022-09-05T02:47:37.972Z,98832.47
2022-09-05T02:57:23.938Z,98833.38
2022-09-05T02:57:34.735Z,98829.00
2022-09-05T02:58:07.047Z,98828.16
2022-09-05T03:01:44.373Z,98829.00
2022-09-05T03:04:52.274Z,98832.53
2022-09-05T03:08:07.478Z,98826.47
2022-09-05T03:11:14.983Z,98823.84
2022-09-05T03:14:44.828Z,98821.22
2022-09-05T03:18:24.348Z,98818.59
2022-09-05T03:21:41.558Z,98814.34
2022-09-05T03:25:18.127Z,98819.53
2022-09-05T03:28:19.546Z,98821.28
2022-09-05T03:31:56.871Z,98810.75
2022-09-05T03:35:40.547Z,98814.22
2022-09-05T03:39:16.160Z,98809.88
2022-09-05T03:42:39.029Z,98800.28
2022-09-05T03:45:52.831Z,98804.75
2022-09-05T03:50:37.193Z,98805.59
2022-09-05T03:57:13.049Z,98803.84
2022-09-05T03:57:13.435Z,98812.53
2022-09-05T03:59:50.422Z,98813.56
2022-09-05T04:07:16.283Z,98810.13
2022-09-05T04:08:14.411Z,98805.81
2022-09-05T04:09:56.948Z,98802.41
2022-09-05T04:13:08.349Z,98804.16
2022-09-05T04:16:18.295Z,98805.81
2022-09-05T04:19:33.821Z,98805.84
2022-09-05T04:22:50.210Z,98807.63
2022-09-05T04:26:07.162Z,98807.63
2022-09-05T04:29:43.546Z,98807.66
2022-09-05T04:32:54.860Z,98810.34
2022-09-05T04:36:02.191Z,98819.03
2022-09-05T04:39:28.587Z,98819.88
2022-09-05T04:42:30.198Z,98815.44
2022-09-05T04:45:35.536Z,98816.34
2022-09-05T04:49:06.961Z,98822.44
2022-09-05T04:52:21.897Z,98828.59
2022-09-05T04:55:39.188Z,98827.75
2022-09-05T05:00:13.002Z,98840.88
2022-09-05T05:06:12.914Z,98842.59
2022-09-05T05:06:16.111Z,98852.19
2022-09-05T05:09:47.978Z,98844.34
2022-09-05T05:18:01.652Z,98855.69
2022-09-05T05:18:08.287Z,98868.00
2022-09-05T05:21:00.064Z,98865.34
2022-09-05T05:24:11.288Z,98873.19
2022-09-05T05:27:15.784Z,98872.28
2022-09-05T05:30:25.288Z,98881.88
2022-09-05T05:33:33.774Z,98883.59
2022-09-05T05:36:37.166Z,98881.88
2022-09-05T05:39:41.889Z,98883.53
2022-09-05T05:42:44.557Z,98889.66
2022-09-05T05:45:46.190Z,98885.25
2022-09-05T05:48:55.654Z,98887.81
2022-09-05T05:52:31.566Z,98890.34
2022-09-05T05:55:51.733Z,98898.19
2022-09-05T05:59:24.654Z,98901.63
2022-09-05T06:02:37.143Z,98899.81
2022-09-05T06:06:03.693Z,98901.53
2022-09-05T06:13:40.352Z,98897.91
2022-09-05T06:15:07.082Z,98896.03
2022-09-05T06:17:08.198Z,98901.19
2022-09-05T06:22:04.632Z,98901.97
2022-09-05T06:24:21.194Z,98903.63
2022-09-05T06:28:18.735Z,98902.75
2022-09-05T06:31:42.143Z,98909.56
2022-09-05T06:34:55.196Z,98910.31
2022-09-05T06:38:04.709Z,98911.09
2022-09-05T06:41:25.960Z,98916.25
2022-09-05T06:44:33.222Z,98918.78
2022-09-05T06:47:35.810Z,98916.63
2022-09-05T06:51:07.079Z,98923.47
2022-09-05T06:54:09.000Z,98914.44
2022-09-05T06:57:44.665Z,98921.34
2022-09-05T07:00:50.299Z,98914.19
2022-09-05T07:05:05.224Z,98919.34
2022-09-05T07:07:40.329Z,98926.16
2022-09-05T07:11:04.225Z,98928.56
2022-09-05T07:14:25.190Z,98925.72
2022-09-05T07:17:53.566Z,98922.72
2022-09-05T07:21:17.708Z,98924.13
2022-09-05T07:24:37.502Z,98932.56
2022-09-05T07:28:26.100Z,98938.38
2022-09-05T07:31:37.393Z,98932.63
2022-09-05T07:34:39.739Z,98937.38
2022-09-05T07:37:42.050Z,98944.81
2022-09-05T07:40:54.109Z,98946.59
2022-09-05T07:43:57.729Z,98943.91
2022-09-05T07:47:06.156Z,98937.97
2022-09-05T07:52:19.119Z,98944.81
2022-09-05T07:57:03.160Z,98955.63
2022-09-05T08:00:29.329Z,98963.50
2022-09-05T08:03:31.290Z,98968.97
2022-09-05T08:07:25.668Z,98970.59
2022-09-05T08:10:10.683Z,98974.75
2022-09-05T08:13:24.788Z,98976.31
2022-09-05T08:16:29.033Z,98972.41
2022-09-05T08:19:36.788Z,98977.28
2022-09-05T08:22:52.531Z,98975.50
2022-09-05T08:26:13.826Z,98983.09
2022-09-05T08:29:39.722Z,98977.13
2022-09-05T08:32:49.491Z,98976.44
2022-09-05T08:36:00.749Z,98975.25
2022-09-05T08:39:03.702Z,98977.63
2022-09-05T08:42:49.412Z,98981.00
2022-09-05T08:46:44.171Z,98980.56
2022-09-05T08:50:11.848Z,98980.69
2022-09-05T08:53:46.454Z,98979.88
2022-09-05T08:56:57.271Z,98977.44
2022-09-05T09:00:19.017Z,98979.88
2022-09-05T09:03:37.686Z,98973.53
2022-09-05T09:07:36.805Z,98973.69
2022-09-05T09:10:50.190Z,98968.69
2022-09-05T09:13:55.481Z,98964.19
2022-09-05T09:17:02.283Z,98973.16
2022-09-05T09:20:26.719Z,98967.63
2022-09-05T09:23:46.904Z,98963.31
2022-09-05T09:27:00.282Z,98956.50
2022-09-05T09:30:04.364Z,98968.84
2022-09-05T09:33:06.230Z,98959.56
2022-09-05T09:36:22.291Z,98950.97
2022-09-05T09:39:39.766Z,98943.56
2022-09-05T09:42:47.861Z,98929.09
2022-09-05T09:46:01.295Z,98928.72
2022-09-05T09:49:27.739Z,98923.31
2022-09-05T09:52:40.189Z,98933.56
2022-09-05T09:56:00.097Z,98940.84
2022-09-05T09:59:16.436Z,98930.66
2022-09-05T10:04:36.680Z,98942.91
2022-09-05T10:10:48.637Z,98944.00
2022-09-05T10:10:56.269Z,98920.25
2022-09-05T10:14:47.608Z,98930.72
2022-09-05T10:17:56.670Z,98920.44
2022-09-05T10:21:17.086Z,98918.25
2022-09-05T10:24:21.904Z,98907.31
2022-09-05T10:27:44.582Z,98908.66
2022-09-05T10:32:56.048Z,98907.34
2022-09-05T10:35:17.913Z,98903.03
2022-09-05T10:37:46.520Z,98897.97
2022-09-05T10:41:21.340Z,98891.31
2022-09-05T10:44:13.521Z,98888.22
2022-09-05T10:47:33.887Z,98910.69
2022-09-05T10:50:41.238Z,98903.13
2022-09-05T10:53:50.373Z,98899.69
2022-09-05T10:57:07.083Z,98902.25
2022-09-05T11:02:24.863Z,98907.31
2022-09-05T11:03:50.247Z,98899.38
2022-09-05T11:06:54.144Z,98902.72
2022-09-05T11:10:10.990Z,98893.34
2022-09-05T11:13:46.903Z,98889.50
2022-09-05T11:16:52.558Z,98889.13
2022-09-05T11:20:30.304Z,98879.13
2022-09-05T11:23:40.413Z,98873.16
2022-09-05T11:26:52.960Z,98860.59
2022-09-05T11:30:30.223Z,98860.38
2022-09-05T11:39:46.111Z,98840.16
2022-09-05T11:40:07.047Z,98850.97
2022-09-05T11:41:34.487Z,98822.28
2022-09-05T11:44:57.568Z,98821.50
2022-09-05T11:48:17.479Z,98818.56
2022-09-05T11:51:37.490Z,98806.63
2022-09-05T11:55:21.177Z,98813.06
2022-09-05T11:58:44.635Z,98794.50
2022-09-05T12:02:23.404Z,98795.91
2022-09-05T12:06:06.161Z,98800.38
2022-09-05T12:09:45.402Z,98798.88
2022-09-05T12:12:49.703Z,98802.41
2022-09-05T12:16:07.428Z,98805.19
2022-09-05T12:19:34.972Z,98782.53
2022-09-05T12:22:37.535Z,98769.22
2022-09-05T12:27:41.715Z,98764.06
2022-09-05T12:29:33.601Z,98758.13
2022-09-05T12:36:01.710Z,98752.56
2022-09-05T12:40:48.317Z,98742.31
2022-09-05T12:40:55.325Z,98731.78
2022-09-05T12:43:33.485Z,98727.09
2022-09-05T12:46:46.735Z,98723.06
2022-09-05T12:50:03.582Z,98710.13
2022-09-05T12:53:21.126Z,98723.34
2022-09-05T13:01:05.192Z,98678.66
2022-09-05T13:03:01.347Z,98668.16
2022-09-05T13:04:15.839Z,98670.97
2022-09-05T13:07:16.302Z,98680.16
2022-09-05T13:14:50.516Z,98672.84
2022-09-05T13:15:07.873Z,98676.94
2022-09-05T13:17:16.735Z,98663.94
2022-09-05T13:20:32.473Z,98690.59
2022-09-05T13:23:39.862Z,98669.88
2022-09-05T13:27:07.236Z,98678.56
2022-09-05T13:33:11.828Z,98669.41
2022-09-05T13:38:05.343Z,98665.53
2022-09-05T13:38:20.786Z,98663.78
2022-09-05T13:40:46.159Z,98666.03
2022-09-05T13:43:47.732Z,98654.28
2022-09-05T13:47:28.878Z,98662.28
2022-09-05T13:50:29.323Z,98662.06
2022-09-05T13:53:51.710Z,98672.41
2022-09-05T13:57:01.452Z,98676.03
2022-09-05T14:00:15.321Z,98682.44
2022-09-05T14:03:58.355Z,98654.03
2022-09-05T14:10:55.007Z,98666.47
2022-09-05T14:14:13.257Z,98699.06
2022-09-05T14:21:02.644Z,98684.88
2022-09-05T14:24:25.965Z,98658.31
2022-09-05T14:27:32.131Z,98680.19
2022-09-05T14:36:20.130Z,98688.63
2022-09-05T14:37:46.363Z,98688.88
2022-09-05T14:38:16.410Z,98694.47
2022-09-05T14:41:48.778Z,98692.19
2022-09-05T14:45:37.079Z,98683.13
2022-09-05T14:49:10.838Z,98687.75
2022-09-05T14:52:29.261Z,98680.16
2022-09-05T14:55:31.037Z,98673.28
2022-09-05T15:02:41.334Z,98677.75
2022-09-05T15:02:54.995Z,98677.47
2022-09-05T15:05:15.956Z,98660.19
2022-09-05T15:11:24.828Z,98659.72
2022-09-05T15:12:21.163Z,98668.41
2022-09-05T15:15:29.059Z,98673.63
2022-09-05T15:18:37.130Z,98667.09
2022-09-05T15:21:41.151Z,98653.72
2022-09-05T15:24:42.747Z,98669.41
2022-09-05T15:27:45.728Z,98653.28
2022-09-05T15:31:05.044Z,98656.13
2022-09-05T15:34:20.114Z,98655.56
2022-09-05T15:37:29.757Z,98649.97
2022-09-05T15:40:31.314Z,98634.56
2022-09-05T15:43:32.831Z,98639.44
2022-09-05T15:46:37.193Z,98649.06
2022-09-05T15:49:42.982Z,98642.28
2022-09-05T15:52:47.179Z,98635.97
2022-09-05T15:56:00.987Z,98628.53
2022-09-05T15:59:03.099Z,98627.66
2022-09-05T16:02:09.683Z,98642.56
2022-09-05T16:09:06.067Z,98636.59
2022-09-05T16:10:46.155Z,98626.31
2022-09-05T16:12:14.165Z,98617.94
2022-09-05T16:21:02.382Z,98621.41
2022-09-05T16:23:17.947Z,98621.84
2022-09-05T16:23:28.096Z,98620.59
2022-09-05T16:25:59.511Z,98609.09
2022-09-05T16:29:12.884Z,98608.50
2022-09-05T16:32:21.382Z,98613.59
2022-09-05T16:35:26.540Z,98602.53
2022-09-05T16:38:49.049Z,98594.69
2022-09-05T16:42:10.894Z,98599.41
2022-09-05T16:45:21.823Z,98643.75
2022-09-05T16:49:02.637Z,98650.38
2022-09-05T16:52:17.794Z,98632.50
2022-09-05T16:55:32.586Z,98629.25
2022-09-05T16:58:41.511Z,98623.97
2022-09-05T17:02:08.762Z,98618.94
2022-09-05T17:05:20.547Z,98623.97
2022-09-05T17:08:28.855Z,98628.13
2022-09-05T17:11:31.705Z,98625.50
2022-09-05T17:14:35.323Z,98619.88
2022-09-05T17:18:20.789Z,98618.69
2022-09-05T17:21:10.666Z,98610.44
2022-09-05T17:29:17.918Z,98624.72
2022-09-05T17:29:49.643Z,98619.09
2022-09-05T17:34:49.698Z,98624.25
2022-09-05T17:38:12.170Z,98615.22
2022-09-05T17:41:16.746Z,98618.47
2022-09-05T17:44:27.608Z,98613.41
2022-09-05T17:47:35.689Z,98622.22
2022-09-05T17:50:51.060Z,98619.41
2022-09-05T17:54:08.601Z,98621.31
2022-09-05T17:57:28.126Z,98617.56
2022-09-05T18:00:48.807Z,98625.94
2022-09-05T18:03:50.428Z,98618.56
2022-09-05T18:10:27.697Z,98637.88
2022-09-05T18:13:52.906Z,98636.81
2022-09-05T18:17:36.038Z,98637.88
2022-09-05T18:20:24.851Z,98656.59
2022-09-05T18:23:43.717Z,98653.59
2022-09-05T18:26:48.898Z,98658.78
2022-09-05T18:30:33.220Z,98656.09
2022-09-05T18:33:56.353Z,98670.63
2022-09-05T18:36:56.853Z,98666.53
2022-09-05T18:40:09.527Z,98662.81
2022-09-05T18:43:26.909Z,98670.38
2022-09-05T18:46:31.205Z,98669.19
2022-09-05T18:50:24.138Z,98669.59
2022-09-05T18:53:10.365Z,98677.28
2022-09-05T18:57:03.050Z,98672.56
2022-09-05T19:00:09.376Z,98678.38
2022-09-05T19:03:27.416Z,98676.75
2022-09-05T19:06:35.751Z,98664.53
2022-09-05T19:09:58.423Z,98671.56
2022-09-05T19:13:03.544Z,98663.97
2022-09-05T19:16:42.417Z,98659.03
2022-09-05T19:20:31.607Z,98666.06
2022-09-05T19:23:33.690Z,98669.38
2022-09-05T19:26:35.199Z,98671.75
2022-09-05T19:36:50.677Z,98656.84
2022-09-05T19:37:11.974Z,98664.59
2022-09-05T19:37:23.932Z,98653.34
2022-09-05T19:47:29.656Z,98644.19
2022-09-05T19:47:37.700Z,98637.75
2022-09-05T19:47:40.432Z,98641.16
2022-09-05T19:50:11.214Z,98635.69
2022-09-05T19:53:15.297Z,98635.69
2022-09-05T19:56:16.876Z,98634.53
2022-09-05T19:59:23.003Z,98640.13
2022-09-05T20:02:29.874Z,98645.53
2022-09-05T20:05:31.506Z,98638.91
2022-09-05T20:08:34.465Z,98641.31
2022-09-05T20:11:46.014Z,98649.66
2022-09-05T20:14:48.226Z,98646.66
2022-09-05T20:17:53.812Z,98649.31
2022-09-05T20:21:05.641Z,98658.44
2022-09-05T20:24:07.182Z,98654.41
2022-09-05T20:27:08.758Z,98656.66
2022-09-05T20:30:15.791Z,98653.97
2022-09-05T20:33:32.264Z,98651.53
2022-09-05T20:43:18.357Z,98646.63
2022-09-05T20:43:18.454Z,98646.56
2022-09-05T20:43:50.280Z,98652.38
2022-09-05T20:54:09.234Z,98654.13
2022-09-05T20:54:15.418Z,98649.53
2022-09-05T20:54:19.412Z,98653.31
2022-09-05T20:57:17.046Z,98646.50
2022-09-05T21:00:22.460Z,98647.16
2022-09-05T21:03:28.194Z,98643.69
2022-09-05T21:06:36.044Z,98649.19
2022-09-05T21:09:56.653Z,98632.53
2022-09-05T21:12:58.217Z,98638.56
2022-09-05T21:15:59.810Z,98637.69
2022-09-05T21:19:01.430Z,98631.91
2022-09-05T21:22:04.637Z,98640.84
2022-09-05T21:25:14.977Z,98633.78
2022-09-05T21:28:36.351Z,98628.44
2022-09-05T21:31:54.559Z,98628.50
2022-09-05T21:34:58.869Z,98626.50
2022-09-05T21:38:01.627Z,98628.72
2022-09-05T21:41:04.034Z,98627.97
2022-09-05T21:47:33.661Z,98627.69
2022-09-05T21:47:39.037Z,98632.31
2022-09-05T21:50:59.380Z,98633.38
2022-09-05T21:59:19.003Z,98630.84
2022-09-05T21:59:19.175Z,98630.97
2022-09-05T22:00:54.277Z,98628.75
2022-09-05T22:03:58.191Z,98630.56
2022-09-05T22:06:59.700Z,98638.47
2022-09-05T22:10:05.496Z,98637.69
2022-09-05T22:13:07.014Z,98637.75
2022-09-05T22:16:09.263Z,98631.78
2022-09-05T22:19:10.782Z,98635.34
2022-09-05T22:22:17.119Z,98631.06
2022-09-05T22:25:27.764Z,98634.28
2022-09-05T22:28:33.883Z,98635.91
2022-09-05T22:31:36.226Z,98627.97
2022-09-05T22:34:37.791Z,98616.69
2022-09-05T22:37:39.906Z,98620.91
2022-09-05T22:40:41.649Z,98622.66
2022-09-05T22:43:43.230Z,98618.72
2022-09-05T22:46:44.772Z,98613.78
2022-09-05T22:49:46.390Z,98615.56
2022-09-05T22:52:47.943Z,98615.56
2022-09-05T22:56:05.747Z,98616.44
2022-09-05T22:59:07.926Z,98607.44
2022-09-05T23:02:09.579Z,98606.50
2022-09-05T23:05:11.234Z,98604.25
2022-09-05T23:08:12.743Z,98599.16
2022-09-05T23:11:15.482Z,98593.03
2022-09-05T23:14:16.982Z,98593.75
2022-09-05T23:17:18.501Z,98595.81
2022-09-05T23:20:20.062Z,98590.78
2022-09-05T23:23:21.709Z,98590.13
2022-09-05T23:26:23.537Z,98583.31
2022-09-05T23:29:25.267Z,98579.69
2022-09-05T23:32:26.767Z,98583.97
2022-09-05T23:35:28.333Z,98576.94
2022-09-05T23:38:29.981Z,98583.13
2022-09-05T23:41:31.830Z,98579.53
2022-09-05T23:44:33.359Z,98578.66
2022-09-05T23:47:35.738Z,98580.56
2022-09-05T23:50:37.282Z,98575.28
2022-09-05T23:53:39.126Z,98576.34
2022-09-05T23:56:40.656Z,98577.44
2022-09-05T23:59:42.215Z,98565.56
